createdAt,value
2022-08-25T00:03:13.608Z,19.60
2022-08-25T00:07:00.655Z,19.60
2022-08-25T00:10:44.332Z,19.60
2022-08-25T00:14:43.541Z,19.60
2022-08-25T00:18:25.725Z,19.60
2022-08-25T00:22:08.096Z,19.50
2022-08-25T00:25:51.011Z,19.50
2022-08-25T00:29:33.807Z,19.50
2022-08-25T00:33:16.736Z,19.50
2022-08-25T00:36:58.653Z,19.50
2022-08-25T00:40:41.434Z,19.50
2022-08-25T00:44:26.202Z,19.50
2022-08-25T00:48:08.089Z,19.50
2022-08-25T00:51:59.201Z,19.50
2022-08-25T00:55:42.211Z,19.50
2022-08-25T00:59:26.430Z,19.50
2022-08-25T01:03:08.592Z,19.50
2022-08-25T01:06:50.427Z,19.50
2022-08-25T01:10:35.028Z,19.50
2022-08-25T01:14:20.416Z,19.50
2022-08-25T01:18:02.788Z,19.50
2022-08-25T01:21:50.443Z,19.50
2022-08-25T01:26:21.124Z,19.50
2022-08-25T01:30:12.591Z,19.50
2022-08-25T01:33:54.514Z,19.50
2022-08-25T01:37:36.599Z,19.50
2022-08-25T01:41:35.215Z,19.50
2022-08-25T01:45:17.095Z,19.60
2022-08-25T01:49:03.850Z,19.60
2022-08-25T01:52:54.999Z,19.60
2022-08-25T01:56:36.881Z,19.60
2022-08-25T02:00:20.057Z,19.60
2022-08-25T02:04:01.983Z,19.60
2022-08-25T02:07:44.608Z,19.60
2022-08-25T02:11:26.996Z,19.60
2022-08-25T02:15:09.723Z,19.60
2022-08-25T02:18:53.123Z,19.60
2022-08-25T02:22:35.103Z,19.50
2022-08-25T02:26:19.085Z,19.50
2022-08-25T02:30:00.980Z,19.40
2022-08-25T02:33:43.128Z,19.40
2022-08-25T02:37:25.036Z,19.50
2022-08-25T02:41:16.893Z,19.50
2022-08-25T02:44:58.783Z,19.40
2022-08-25T02:48:41.631Z,19.40
2022-08-25T02:52:23.555Z,19.40
2022-08-25T02:56:09.653Z,19.40
2022-08-25T02:59:52.062Z,19.40
2022-08-25T03:03:39.185Z,19.40
2022-08-25T03:07:22.040Z,19.40
2022-08-25T03:11:06.828Z,19.40
2022-08-25T03:14:48.835Z,19.40
2022-08-25T03:18:31.799Z,19.40
2022-08-25T03:22:13.702Z,19.40
2022-08-25T03:26:14.786Z,19.30
2022-08-25T03:29:56.951Z,19.30
2022-08-25T03:33:38.926Z,19.40
2022-08-25T03:37:20.775Z,19.30
2022-08-25T03:41:02.741Z,19.30
2022-08-25T03:44:44.972Z,19.30
2022-08-25T03:48:26.852Z,19.30
2022-08-25T03:52:08.757Z,19.30
2022-08-25T03:55:50.911Z,19.20
2022-08-25T03:59:32.746Z,19.20
2022-08-25T04:03:14.630Z,19.20
2022-08-25T04:06:56.567Z,19.20
2022-08-25T04:10:38.838Z,19.20
2022-08-25T04:14:21.764Z,19.20
2022-08-25T04:18:04.130Z,19.20
2022-08-25T04:21:46.418Z,19.20
2022-08-25T04:25:28.298Z,19.20
2022-08-25T04:29:12.392Z,19.20
2022-08-25T04:32:54.290Z,19.20
2022-08-25T04:36:36.675Z,19.20
2022-08-25T04:40:18.744Z,19.10
2022-08-25T04:44:06.363Z,19.20
2022-08-25T04:47:52.941Z,19.20
2022-08-25T04:51:40.024Z,19.10
2022-08-25T04:55:22.006Z,19.10
2022-08-25T04:59:07.193Z,19.10
2022-08-25T05:02:49.352Z,19.10
2022-08-25T05:06:31.403Z,19.10
2022-08-25T05:10:13.762Z,19.00
2022-08-25T05:13:57.506Z,19.00
2022-08-25T05:17:39.565Z,19.00
2022-08-25T05:21:25.257Z,19.00
2022-08-25T05:25:07.848Z,18.90
2022-08-25T05:28:51.079Z,18.90
2022-08-25T05:32:32.980Z,18.90
2022-08-25T05:36:15.733Z,18.90
2022-08-25T05:39:58.042Z,18.90
2022-08-25T05:43:41.505Z,18.90
2022-08-25T05:47:23.748Z,18.90
2022-08-25T05:51:07.827Z,18.90
2022-08-25T05:54:50.450Z,18.90
2022-08-25T05:58:32.358Z,18.90
2022-08-25T06:02:32.858Z,18.90
2022-08-25T06:06:16.155Z,18.90
2022-08-25T06:09:58.085Z,18.90
2022-08-25T06:13:40.703Z,18.90
2022-08-25T06:17:22.887Z,18.90
2022-08-25T06:21:10.184Z,18.90
2022-08-25T06:24:52.147Z,18.90
2022-08-25T06:28:34.071Z,18.90
2022-08-25T06:32:16.040Z,18.80
2022-08-25T06:35:58.415Z,18.80
2022-08-25T06:39:40.410Z,18.80
2022-08-25T06:43:22.383Z,18.80
2022-08-25T06:47:04.470Z,18.80
2022-08-25T06:50:46.918Z,18.70
2022-08-25T06:54:28.896Z,18.70
2022-08-25T06:58:11.340Z,18.70
2022-08-25T07:01:53.767Z,18.70
2022-08-25T07:05:43.428Z,18.70
2022-08-25T07:09:26.092Z,18.70
2022-08-25T07:13:07.999Z,18.70
2022-08-25T07:16:50.325Z,18.70
2022-08-25T07:20:40.605Z,18.70
2022-08-25T07:24:23.403Z,18.70
2022-08-25T07:28:05.450Z,18.70
2022-08-25T07:31:48.163Z,18.70
2022-08-25T07:35:37.540Z,18.80
2022-08-25T07:39:22.118Z,18.70
2022-08-25T07:43:08.277Z,18.70
2022-08-25T07:46:51.469Z,18.70
2022-08-25T07:50:35.188Z,18.70
2022-08-25T07:54:17.378Z,18.60
2022-08-25T07:58:02.305Z,18.60
2022-08-25T08:01:44.850Z,18.50
2022-08-25T08:05:27.751Z,18.50
2022-08-25T08:09:09.700Z,18.50
2022-08-25T08:12:52.807Z,18.50
2022-08-25T08:16:35.011Z,18.50
2022-08-25T08:20:17.763Z,18.50
2022-08-25T08:24:14.817Z,18.50
2022-08-25T08:28:08.188Z,18.40
2022-08-25T08:31:51.898Z,18.40
2022-08-25T08:35:33.782Z,18.40
2022-08-25T08:39:15.928Z,18.40
2022-08-25T08:43:17.990Z,18.40
2022-08-25T08:47:20.464Z,18.40
2022-08-25T08:51:18.711Z,18.40
2022-08-25T08:55:06.529Z,18.50
2022-08-25T08:59:09.669Z,18.50
2022-08-25T09:03:09.934Z,18.50
2022-08-25T09:06:52.482Z,18.50
2022-08-25T09:11:00.581Z,18.50
2022-08-25T09:14:57.433Z,18.40
2022-08-25T09:18:52.512Z,18.40
2022-08-25T09:22:47.122Z,18.30
2022-08-25T09:26:36.193Z,18.30
2022-08-25T09:30:22.011Z,18.30
2022-08-25T09:34:19.238Z,18.30
2022-08-25T09:38:13.313Z,18.30
2022-08-25T09:41:59.277Z,18.30
2022-08-25T09:45:44.389Z,18.30
2022-08-25T09:49:42.707Z,18.30
2022-08-25T09:53:25.046Z,18.30
2022-08-25T09:57:08.554Z,18.40
2022-08-25T10:01:14.341Z,18.40
2022-08-25T10:04:59.256Z,18.40
2022-08-25T10:08:44.119Z,18.40
2022-08-25T10:12:51.373Z,18.40
2022-08-25T10:16:36.199Z,18.50
2022-08-25T10:20:22.369Z,18.50
2022-08-25T10:24:05.928Z,18.60
2022-08-25T10:27:47.787Z,18.70
2022-08-25T10:32:02.242Z,18.70
2022-08-25T10:36:12.283Z,18.80
2022-08-25T10:40:12.911Z,18.80
2022-08-25T10:44:33.372Z,18.90
2022-08-25T10:48:30.008Z,18.90
2022-08-25T10:52:24.379Z,18.80
2022-08-25T10:56:23.403Z,18.80
2022-08-25T11:00:06.892Z,18.80
2022-08-25T11:04:01.697Z,18.80
2022-08-25T11:07:52.467Z,18.90
2022-08-25T11:11:37.241Z,19.00
2022-08-25T11:15:36.271Z,19.10
2022-08-25T11:19:26.832Z,19.10
2022-08-25T11:23:21.415Z,19.20
2022-08-25T11:27:10.291Z,19.20
2022-08-25T11:30:58.651Z,19.20
2022-08-25T11:34:43.827Z,19.10
2022-08-25T11:38:56.752Z,19.10
2022-08-25T11:43:25.331Z,19.10
2022-08-25T11:47:14.721Z,19.20
2022-08-25T11:51:10.927Z,19.20
2022-08-25T11:54:53.175Z,19.30
2022-08-25T11:58:53.805Z,19.40
2022-08-25T12:02:43.463Z,19.60
2022-08-25T12:06:32.016Z,19.80
2022-08-25T12:10:20.791Z,19.90
2022-08-25T12:14:21.985Z,20.00
2022-08-25T12:18:16.574Z,20.10
2022-08-25T12:22:04.061Z,20.10
2022-08-25T12:25:49.577Z,20.10
2022-08-25T12:29:46.135Z,20.20
2022-08-25T12:33:59.443Z,20.30
2022-08-25T12:38:04.985Z,20.40
2022-08-25T12:42:05.413Z,20.60
2022-08-25T12:45:49.833Z,20.70
2022-08-25T12:49:35.874Z,20.80
2022-08-25T12:53:17.825Z,20.80
2022-08-25T12:57:05.375Z,20.80
2022-08-25T13:01:17.439Z,20.70
2022-08-25T13:05:35.247Z,20.80
2022-08-25T13:09:43.494Z,21.00
2022-08-25T13:13:43.882Z,21.20
2022-08-25T13:17:27.125Z,21.40
2022-08-25T13:21:41.952Z,21.90
2022-08-25T13:25:32.001Z,22.20
2022-08-25T13:29:24.292Z,22.20
2022-08-25T13:33:21.830Z,22.10
2022-08-25T13:37:30.404Z,22.00
2022-08-25T13:41:19.821Z,21.90
2022-08-25T13:45:01.780Z,21.80
2022-08-25T13:48:49.741Z,21.80
2022-08-25T13:52:32.052Z,21.70
2022-08-25T13:56:42.084Z,21.50
2022-08-25T14:00:47.272Z,21.30
2022-08-25T14:04:32.478Z,21.10
2022-08-25T14:08:33.189Z,21.00
2022-08-25T14:12:29.949Z,20.90
2022-08-25T14:16:14.243Z,21.00
2022-08-25T14:19:57.377Z,21.20
2022-08-25T14:23:39.869Z,21.40
2022-08-25T14:27:22.222Z,21.70
2022-08-25T14:31:13.091Z,22.70
2022-08-25T14:34:56.754Z,24.20
2022-08-25T14:38:39.143Z,25.50
2022-08-25T14:42:26.424Z,26.60
2022-08-25T14:46:19.002Z,27.50
2022-08-25T14:50:01.951Z,28.20
2022-08-25T14:53:44.738Z,28.90
2022-08-25T14:57:27.725Z,29.10
2022-08-25T15:01:13.975Z,29.10
2022-08-25T15:05:05.934Z,28.90
2022-08-25T15:09:06.391Z,28.80
2022-08-25T15:12:53.913Z,28.60
2022-08-25T15:16:42.372Z,28.00
2022-08-25T15:20:24.662Z,27.60
2022-08-25T15:24:09.373Z,27.60
2022-08-25T15:27:52.262Z,27.40
2022-08-25T15:31:34.234Z,27.00
2022-08-25T15:35:16.285Z,27.20
2022-08-25T15:38:58.490Z,27.20
2022-08-25T15:42:42.898Z,26.90
2022-08-25T15:46:30.370Z,26.70
2022-08-25T15:50:16.509Z,26.40
2022-08-25T15:53:58.854Z,26.20
2022-08-25T15:57:41.094Z,25.90
2022-08-25T16:01:27.716Z,25.70
2022-08-25T16:05:12.468Z,25.60
2022-08-25T16:08:56.223Z,25.40
2022-08-25T16:12:40.022Z,25.30
2022-08-25T16:16:27.424Z,25.10
2022-08-25T16:20:12.594Z,24.90
2022-08-25T16:23:58.679Z,24.60
2022-08-25T16:27:41.064Z,24.40
2022-08-25T16:31:23.675Z,24.30
2022-08-25T16:35:06.738Z,24.20
2022-08-25T16:38:53.286Z,24.00
2022-08-25T16:42:35.629Z,23.80
2022-08-25T16:46:20.441Z,23.60
2022-08-25T16:50:03.506Z,23.40
2022-08-25T16:54:04.496Z,23.10
2022-08-25T16:57:51.685Z,23.00
2022-08-25T17:01:35.488Z,22.80
2022-08-25T17:05:18.285Z,22.70
2022-08-25T17:09:00.239Z,22.50
2022-08-25T17:12:42.105Z,22.50
2022-08-25T17:16:28.095Z,22.40
2022-08-25T17:20:10.155Z,22.50
2022-08-25T17:23:53.384Z,22.60
2022-08-25T17:27:35.232Z,22.80
2022-08-25T17:31:18.256Z,22.80
2022-08-25T17:35:00.147Z,22.80
2022-08-25T17:38:42.190Z,22.70
2022-08-25T17:42:24.094Z,22.60
2022-08-25T17:46:13.282Z,22.50
2022-08-25T17:49:55.231Z,22.40
2022-08-25T17:53:38.529Z,22.20
2022-08-25T17:57:21.264Z,22.10
2022-08-25T18:01:04.770Z,21.90
2022-08-25T18:04:46.889Z,21.70
2022-08-25T18:08:32.068Z,21.60
2022-08-25T18:12:16.888Z,21.50
2022-08-25T18:15:59.614Z,21.30
2022-08-25T18:19:41.570Z,21.20
2022-08-25T18:23:23.481Z,21.10
2022-08-25T18:27:05.530Z,20.90
2022-08-25T18:30:48.583Z,20.80
2022-08-25T18:34:31.798Z,20.60
2022-08-25T18:38:32.245Z,20.40
2022-08-25T18:42:15.419Z,20.30
2022-08-25T18:46:01.966Z,20.20
2022-08-25T18:49:43.717Z,20.00
2022-08-25T18:53:36.735Z,19.90
2022-08-25T18:57:19.482Z,19.70
2022-08-25T19:01:02.920Z,19.60
2022-08-25T19:04:45.572Z,19.40
2022-08-25T19:08:27.475Z,19.30
2022-08-25T19:12:11.608Z,19.20
2022-08-25T19:16:17.870Z,19.00
2022-08-25T19:20:02.383Z,18.90
2022-08-25T19:23:46.295Z,18.80
2022-08-25T19:27:28.211Z,18.60
2022-08-25T19:31:10.181Z,18.50
2022-08-25T19:34:54.782Z,18.30
2022-08-25T19:38:38.038Z,18.30
2022-08-25T19:42:34.819Z,18.10
2022-08-25T19:46:19.749Z,18.00
2022-08-25T19:50:01.883Z,17.90
2022-08-25T19:53:43.932Z,17.90
2022-08-25T19:57:28.467Z,17.80
2022-08-25T20:01:24.647Z,17.70
2022-08-25T20:05:07.126Z,17.60
2022-08-25T20:08:59.015Z,17.50
2022-08-25T20:12:44.646Z,17.40
2022-08-25T20:16:28.237Z,17.40
2022-08-25T20:20:12.992Z,17.30
2022-08-25T20:24:13.634Z,17.30
2022-08-25T20:27:56.223Z,17.20
2022-08-25T20:31:38.532Z,17.10
2022-08-25T20:35:21.554Z,17.00
2022-08-25T20:39:09.616Z,17.00
2022-08-25T20:42:51.668Z,16.90
2022-08-25T20:46:34.824Z,16.80
2022-08-25T20:50:20.598Z,16.70
2022-08-25T20:54:02.612Z,16.60
2022-08-25T20:57:45.054Z,16.60
2022-08-25T21:01:37.955Z,16.50
2022-08-25T21:05:21.798Z,16.40
2022-08-25T21:09:13.754Z,16.40
2022-08-25T21:12:57.628Z,16.30
2022-08-25T21:16:41.007Z,16.30
2022-08-25T21:20:25.114Z,16.20
2022-08-25T21:24:09.983Z,16.20
2022-08-25T21:27:52.072Z,16.10
2022-08-25T21:31:35.807Z,16.10
2022-08-25T21:35:17.740Z,16.00
2022-08-25T21:39:00.858Z,15.90
2022-08-25T21:42:42.771Z,15.90
2022-08-25T21:46:28.323Z,15.80
2022-08-25T21:50:12.644Z,15.70
2022-08-25T21:54:11.161Z,15.60
2022-08-25T21:57:54.742Z,15.60
2022-08-25T22:01:37.217Z,15.50
2022-08-25T22:05:19.409Z,15.40
2022-08-25T22:09:02.174Z,15.30
2022-08-25T22:12:44.355Z,15.30
2022-08-25T22:16:26.629Z,15.20
2022-08-25T22:20:11.686Z,15.10
2022-08-25T22:23:56.010Z,15.00
2022-08-25T22:27:38.231Z,14.90
2022-08-25T22:31:21.035Z,14.90
2022-08-25T22:35:03.177Z,14.80
2022-08-25T22:38:46.543Z,14.70
2022-08-25T22:42:28.590Z,14.70
2022-08-25T22:46:12.758Z,14.60
2022-08-25T22:49:55.664Z,14.50
2022-08-25T22:53:39.782Z,14.50
2022-08-25T22:57:21.641Z,14.40
2022-08-25T23:01:04.615Z,14.40
2022-08-25T23:04:46.834Z,14.30
2022-08-25T23:08:39.335Z,14.30
2022-08-25T23:12:23.679Z,14.20
2022-08-25T23:16:07.646Z,14.10
2022-08-25T23:19:51.273Z,14.10
2022-08-25T23:23:37.226Z,14.00
2022-08-25T23:27:21.718Z,14.00
2022-08-25T23:31:11.750Z,13.90
2022-08-25T23:34:53.610Z,13.80
2022-08-25T23:38:36.631Z,13.80
2022-08-25T23:42:21.466Z,13.70
2022-08-25T23:46:04.421Z,13.70
2022-08-25T23:49:48.192Z,13.60
2022-08-25T23:53:31.315Z,13.60
2022-08-25T23:57:13.323Z,13.60
